sensor_id;sensor_type;location;lat;lon;timestamp;pressure;altitude;pressure_sealevel;temperature;humidity
68193;BME280;55012;47.562;18.414;2024-03-07T00:00:20;99148.22;;;3.55;100.00
68193;BME280;55012;47.562;18.414;2024-03-07T00:02:48;99149.03;;;3.56;100.00
68193;BME280;55012;47.562;18.414;2024-03-07T00:05:14;99165.25;;;3.59;100.00
68193;BME280;55012;47.562;18.414;2024-03-07T00:07:40;99164.78;;;3.57;100.00
68193;BME280;55012;47.562;18.414;2024-03-07T00:10:06;99168.72;;;3.60;100.00
68193;BME280;55012;47.562;18.414;2024-03-07T00:12:35;99178.31;;;3.61;100.00
68193;BME280;55012;47.562;18.414;2024-03-07T00:15:05;99176.44;;;3.61;100.00
68193;BME280;55012;47.562;18.414;2024-03-07T00:17:31;99179.13;;;3.61;100.00
68193;BME280;55012;47.562;18.414;2024-03-07T00:19:56;99188.94;;;3.66;100.00
68193;BME280;55012;47.562;18.414;2024-03-07T00:22:22;99183.06;;;3.64;100.00
68193;BME280;55012;47.562;18.414;2024-03-07T00:24:48;99191.59;;;3.66;100.00
68193;BME280;55012;47.562;18.414;2024-03-07T00:27:13;99193.78;;;3.64;100.00
68193;BME280;55012;47.562;18.414;2024-03-07T00:29:42;99203.09;;;3.66;100.00
68193;BME280;55012;47.562;18.414;2024-03-07T00:32:08;99206.06;;;3.65;100.00
68193;BME280;55012;47.562;18.414;2024-03-07T00:34:34;99210.34;;;3.66;100.00
68193;BME280;55012;47.562;18.414;2024-03-07T00:36:59;99208.44;;;3.66;100.00
68193;BME280;55012;47.562;18.414;2024-03-07T00:39:25;99221.44;;;3.73;100.00
68193;BME280;55012;47.562;18.414;2024-03-07T00:41:51;99223.41;;;3.81;100.00
68193;BME280;55012;47.562;18.414;2024-03-07T00:44:16;99216.03;;;3.87;100.00
68193;BME280;55012;47.562;18.414;2024-03-07T00:46:43;99216.50;;;4.03;100.00
68193;BME280;55012;47.562;18.414;2024-03-07T00:49:08;99224.59;;;4.11;100.00
68193;BME280;55012;47.562;18.414;2024-03-07T00:51:34;99210.63;;;4.14;100.00
68193;BME280;55012;47.562;18.414;2024-03-07T00:53:59;99196.63;;;4.17;100.00
68193;BME280;55012;47.562;18.414;2024-03-07T00:56:24;99200.94;;;4.27;100.00
68193;BME280;55012;47.562;18.414;2024-03-07T00:58:52;99202.91;;;4.35;100.00
68193;BME280;55012;47.562;18.414;2024-03-07T01:01:18;99195.84;;;4.39;100.00
68193;BME280;55012;47.562;18.414;2024-03-07T01:03:46;99188.78;;;4.43;100.00
68193;BME280;55012;47.562;18.414;2024-03-07T01:06:11;99173.31;;;4.40;100.00
68193;BME280;55012;47.562;18.414;2024-03-07T01:08:38;99186.88;;;4.44;100.00
68193;BME280;55012;47.562;18.414;2024-03-07T01:11:04;99179.16;;;4.42;100.00
68193;BME280;55012;47.562;18.414;2024-03-07T01:13:38;99174.72;;;4.38;100.00
68193;BME280;55012;47.562;18.414;2024-03-07T01:16:04;99177.59;;;4.41;100.00
68193;BME280;55012;47.562;18.414;2024-03-07T01:18:30;99171.13;;;4.42;100.00
68193;BME280;55012;47.562;18.414;2024-03-07T01:20:58;99170.50;;;4.45;100.00
68193;BME280;55012;47.562;18.414;2024-03-07T01:23:24;99170.13;;;4.38;100.00
68193;BME280;55012;47.562;18.414;2024-03-07T01:25:49;99163.94;;;4.29;100.00
68193;BME280;55012;47.562;18.414;2024-03-07T01:28:15;99167.06;;;4.22;100.00
68193;BME280;55012;47.562;18.414;2024-03-07T01:30:42;99176.00;;;4.18;100.00
68193;BME280;55012;47.562;18.414;2024-03-07T01:33:07;99181.19;;;4.14;100.00
68193;BME280;55012;47.562;18.414;2024-03-07T01:35:33;99178.28;;;4.11;100.00
68193;BME280;55012;47.562;18.414;2024-03-07T01:37:58;99183.53;;;4.16;100.00
68193;BME280;55012;47.562;18.414;2024-03-07T01:40:23;99186.69;;;4.18;100.00
68193;BME280;55012;47.562;18.414;2024-03-07T01:42:52;99197.41;;;4.18;100.00
68193;BME280;55012;47.562;18.414;2024-03-07T01:45:17;99220.66;;;4.09;100.00
68193;BME280;55012;47.562;18.414;2024-03-07T01:47:46;99239.31;;;4.00;100.00
68193;BME280;55012;47.562;18.414;2024-03-07T01:50:11;99261.13;;;3.93;100.00
68193;BME280;55012;47.562;18.414;2024-03-07T01:52:40;99287.09;;;3.79;100.00
68193;BME280;55012;47.562;18.414;2024-03-07T01:55:07;99298.31;;;3.67;100.00
68193;BME280;55012;47.562;18.414;2024-03-07T01:57:32;99321.09;;;3.65;100.00
68193;BME280;55012;47.562;18.414;2024-03-07T01:59:58;99340.81;;;3.69;100.00
68193;BME280;55012;47.562;18.414;2024-03-07T02:02:25;99370.94;;;3.75;100.00
68193;BME280;55012;47.562;18.414;2024-03-07T02:04:51;99391.75;;;3.78;100.00
68193;BME280;55012;47.562;18.414;2024-03-07T02:07:16;99426.34;;;3.74;100.00
68193;BME280;55012;47.562;18.414;2024-03-07T02:09:41;99438.41;;;3.58;100.00
68193;BME280;55012;47.562;18.414;2024-03-07T02:12:07;99457.97;;;3.40;100.00
68193;BME280;55012;47.562;18.414;2024-03-07T02:14:34;99477.31;;;3.13;100.00
68193;BME280;55012;47.562;18.414;2024-03-07T02:16:59;99518.16;;;2.99;100.00
68193;BME280;55012;47.562;18.414;2024-03-07T02:19:25;99556.03;;;2.83;100.00
68193;BME280;55012;47.562;18.414;2024-03-07T02:21:51;99582.84;;;2.72;100.00
68193;BME280;55012;47.562;18.414;2024-03-07T02:24:16;99632.81;;;2.72;100.00
68193;BME280;55012;47.562;18.414;2024-03-07T02:26:42;99677.50;;;2.66;100.00
68193;BME280;55012;47.562;18.414;2024-03-07T02:29:07;99713.91;;;2.57;100.00
68193;BME280;55012;47.562;18.414;2024-03-07T02:31:33;99772.13;;;2.55;100.00
68193;BME280;55012;47.562;18.414;2024-03-07T02:34:03;99839.66;;;2.56;100.00
68193;BME280;55012;47.562;18.414;2024-03-07T02:36:28;99918.75;;;2.51;100.00
68193;BME280;55012;47.562;18.414;2024-03-07T02:38:54;99984.75;;;2.46;100.00
68193;BME280;55012;47.562;18.414;2024-03-07T02:41:19;100058.75;;;2.40;100.00
68193;BME280;55012;47.562;18.414;2024-03-07T02:43:44;100077.94;;;2.37;100.00
68193;BME280;55012;47.562;18.414;2024-03-07T02:46:10;100086.22;;;2.31;100.00
68193;BME280;55012;47.562;18.414;2024-03-07T02:48:37;100115.34;;;2.42;100.00
68193;BME280;55012;47.562;18.414;2024-03-07T02:51:04;100129.75;;;2.46;100.00
68193;BME280;55012;47.562;18.414;2024-03-07T02:53:31;100136.97;;;2.51;100.00
68193;BME280;55012;47.562;18.414;2024-03-07T02:55:57;100139.59;;;2.61;100.00
68193;BME280;55012;47.562;18.414;2024-03-07T02:58:22;100151.34;;;2.70;100.00
68193;BME280;55012;47.562;18.414;2024-03-07T03:00:56;100152.94;;;2.76;100.00
68193;BME280;55012;47.562;18.414;2024-03-07T03:03:22;100160.41;;;2.90;100.00
68193;BME280;55012;47.562;18.414;2024-03-07T03:05:47;100162.78;;;3.01;100.00
68193;BME280;55012;47.562;18.414;2024-03-07T03:08:13;100164.88;;;3.15;100.00
68193;BME280;55012;47.562;18.414;2024-03-07T03:10:39;100171.50;;;3.27;100.00
68193;BME280;55012;47.562;18.414;2024-03-07T03:13:04;100164.22;;;3.38;100.00
68193;BME280;55012;47.562;18.414;2024-03-07T03:15:30;100162.34;;;3.49;100.00
68193;BME280;55012;47.562;18.414;2024-03-07T03:17:56;100160.69;;;3.58;100.00
68193;BME280;55012;47.562;18.414;2024-03-07T03:20:25;100156.63;;;3.65;100.00
68193;BME280;55012;47.562;18.414;2024-03-07T03:22:54;100151.78;;;3.73;100.00
68193;BME280;55012;47.562;18.414;2024-03-07T03:25:20;100143.69;;;3.78;100.00
68193;BME280;55012;47.562;18.414;2024-03-07T03:27:47;100150.09;;;3.82;100.00
68193;BME280;55012;47.562;18.414;2024-03-07T03:30:12;100138.03;;;3.84;100.00
68193;BME280;55012;47.562;18.414;2024-03-07T03:32:42;100143.91;;;3.86;100.00
68193;BME280;55012;47.562;18.414;2024-03-07T03:35:07;100131.09;;;3.83;100.00
68193;BME280;55012;47.562;18.414;2024-03-07T03:37:43;100117.72;;;3.78;100.00
68193;BME280;55012;47.562;18.414;2024-03-07T03:40:10;100118.00;;;3.77;100.00
68193;BME280;55012;47.562;18.414;2024-03-07T03:42:39;100116.44;;;3.71;100.00
68193;BME280;55012;47.562;18.414;2024-03-07T03:45:06;100114.69;;;3.56;100.00
68193;BME280;55012;47.562;18.414;2024-03-07T03:47:38;100104.06;;;3.41;100.00
68193;BME280;55012;47.562;18.414;2024-03-07T03:50:07;100092.88;;;3.33;100.00
68193;BME280;55012;47.562;18.414;2024-03-07T03:52:33;100088.53;;;3.37;100.00
68193;BME280;55012;47.562;18.414;2024-03-07T03:55:01;100087.22;;;3.40;100.00
68193;BME280;55012;47.562;18.414;2024-03-07T03:57:27;100085.59;;;3.39;100.00
68193;BME280;55012;47.562;18.414;2024-03-07T03:59:54;100087.22;;;3.40;100.00
68193;BME280;55012;47.562;18.414;2024-03-07T04:02:20;100077.31;;;3.41;100.00
68193;BME280;55012;47.562;18.414;2024-03-07T04:04:46;100091.19;;;3.48;100.00
68193;BME280;55012;47.562;18.414;2024-03-07T04:07:12;100089.25;;;3.53;100.00
68193;BME280;55012;47.562;18.414;2024-03-07T04:09:38;100084.44;;;3.55;100.00
68193;BME280;55012;47.562;18.414;2024-03-07T04:12:03;100091.34;;;3.66;100.00
68193;BME280;55012;47.562;18.414;2024-03-07T04:14:30;100084.06;;;3.72;100.00
68193;BME280;55012;47.562;18.414;2024-03-07T04:16:58;100084.06;;;3.72;100.00
68193;BME280;55012;47.562;18.414;2024-03-07T04:19:24;100093.94;;;3.72;100.00
68193;BME280;55012;47.562;18.414;2024-03-07T04:21:50;100091.84;;;3.69;100.00
68193;BME280;55012;47.562;18.414;2024-03-07T04:24:16;100086.25;;;3.65;100.00
68193;BME280;55012;47.562;18.414;2024-03-07T04:26:42;100088.97;;;3.60;100.00
68193;BME280;55012;47.562;18.414;2024-03-07T04:29:07;100079.66;;;3.52;100.00
68193;BME280;55012;47.562;18.414;2024-03-07T04:31:36;100077.53;;;3.49;100.00
68193;BME280;55012;47.562;18.414;2024-03-07T04:34:02;100078.63;;;3.48;100.00
68193;BME280;55012;47.562;18.414;2024-03-07T04:36:27;100080.50;;;3.43;100.00
68193;BME280;55012;47.562;18.414;2024-03-07T04:38:54;100081.06;;;3.40;100.00
68193;BME280;55012;47.562;18.414;2024-03-07T04:41:20;100085.84;;;3.48;100.00
68193;BME280;55012;47.562;18.414;2024-03-07T04:43:45;100091.41;;;3.51;100.00
68193;BME280;55012;47.562;18.414;2024-03-07T04:46:11;100094.31;;;3.55;100.00
68193;BME280;55012;47.562;18.414;2024-03-07T04:48:36;100096.19;;;3.59;100.00
68193;BME280;55012;47.562;18.414;2024-03-07T04:51:02;100098.59;;;3.61;100.00
68193;BME280;55012;47.562;18.414;2024-03-07T04:53:28;100098.56;;;3.66;100.00
68193;BME280;55012;47.562;18.414;2024-03-07T04:55:54;100105.25;;;3.63;100.00
68193;BME280;55012;47.562;18.414;2024-03-07T04:58:19;100098.06;;;3.59;100.00
68193;BME280;55012;47.562;18.414;2024-03-07T05:00:45;100106.91;;;3.54;100.00
68193;BME280;55012;47.562;18.414;2024-03-07T05:03:10;100111.72;;;3.57;100.00
68193;BME280;55012;47.562;18.414;2024-03-07T05:05:36;100115.72;;;3.60;100.00
68193;BME280;55012;47.562;18.414;2024-03-07T05:08:01;100113.56;;;3.62;100.00
68193;BME280;55012;47.562;18.414;2024-03-07T05:10:29;100113.03;;;3.60;100.00
68193;BME280;55012;47.562;18.414;2024-03-07T05:12:55;100125.28;;;3.71;100.00
68193;BME280;55012;47.562;18.414;2024-03-07T05:15:20;100129.00;;;3.75;100.00
68193;BME280;55012;47.562;18.414;2024-03-07T05:17:46;100129.78;;;3.81;100.00
68193;BME280;55012;47.562;18.414;2024-03-07T05:20:11;100140.44;;;3.86;100.00
68193;BME280;55012;47.562;18.414;2024-03-07T05:22:39;100136.69;;;3.87;100.00
68193;BME280;55012;47.562;18.414;2024-03-07T05:25:17;100136.38;;;3.88;100.00
68193;BME280;55012;47.562;18.414;2024-03-07T05:27:44;100140.41;;;3.91;100.00
68193;BME280;55012;47.562;18.414;2024-03-07T05:30:10;100155.09;;;3.99;100.00
68193;BME280;55012;47.562;18.414;2024-03-07T05:32:37;100168.97;;;4.06;100.00
68193;BME280;55012;47.562;18.414;2024-03-07T05:35:02;100170.28;;;4.08;100.00
68193;BME280;55012;47.562;18.414;2024-03-07T05:37:28;100171.31;;;4.12;100.00
68193;BME280;55012;47.562;18.414;2024-03-07T05:39:53;100179.34;;;4.12;100.00
68193;BME280;55012;47.562;18.414;2024-03-07T05:42:19;100176.50;;;3.99;100.00
68193;BME280;55012;47.562;18.414;2024-03-07T05:44:45;100178.16;;;3.89;100.00
68193;BME280;55012;47.562;18.414;2024-03-07T05:47:10;100180.34;;;3.82;100.00
68193;BME280;55012;47.562;18.414;2024-03-07T05:49:38;100190.06;;;3.63;100.00
68193;BME280;55012;47.562;18.414;2024-03-07T05:52:04;100185.59;;;3.48;100.00
68193;BME280;55012;47.562;18.414;2024-03-07T05:54:31;100194.44;;;3.38;100.00
68193;BME280;55012;47.562;18.414;2024-03-07T05:56:57;100217.47;;;3.34;100.00
68193;BME280;55012;47.562;18.414;2024-03-07T05:59:22;100232.72;;;3.29;100.00
68193;BME280;55012;47.562;18.414;2024-03-07T06:01:48;100248.78;;;3.29;100.00
68193;BME280;55012;47.562;18.414;2024-03-07T06:04:13;100264.28;;;3.27;100.00
68193;BME280;55012;47.562;18.414;2024-03-07T06:06:40;100278.19;;;3.29;100.00
68193;BME280;55012;47.562;18.414;2024-03-07T06:09:08;100292.91;;;3.31;100.00
68193;BME280;55012;47.562;18.414;2024-03-07T06:11:38;100315.34;;;3.35;100.00
68193;BME280;55012;47.562;18.414;2024-03-07T06:14:04;100323.66;;;3.34;100.00
68193;BME280;55012;47.562;18.414;2024-03-07T06:16:31;100341.03;;;3.42;100.00
68193;BME280;55012;47.562;18.414;2024-03-07T06:18:59;100356.50;;;3.55;100.00
68193;BME280;55012;47.562;18.414;2024-03-07T06:21:25;100350.59;;;3.63;100.00
68193;BME280;55012;47.562;18.414;2024-03-07T06:23:50;100354.88;;;3.69;100.00
68193;BME280;55012;47.562;18.414;2024-03-07T06:26:25;100369.34;;;3.73;100.00
68193;BME280;55012;47.562;18.414;2024-03-07T06:29:05;100369.34;;;3.73;100.00
68193;BME280;55012;47.562;18.414;2024-03-07T06:31:31;100379.50;;;3.76;100.00
68193;BME280;55012;47.562;18.414;2024-03-07T06:33:57;100384.03;;;3.81;100.00
68193;BME280;55012;47.562;18.414;2024-03-07T06:36:23;100396.06;;;3.78;100.00
68193;BME280;55012;47.562;18.414;2024-03-07T06:38:49;100394.22;;;3.74;100.00
68193;BME280;55012;47.562;18.414;2024-03-07T06:41:14;100400.66;;;3.67;100.00
68193;BME280;55012;47.562;18.414;2024-03-07T06:43:40;100407.88;;;3.62;100.00
68193;BME280;55012;47.562;18.414;2024-03-07T06:46:05;100410.53;;;3.62;100.00
68193;BME280;55012;47.562;18.414;2024-03-07T06:48:31;100418.03;;;3.60;100.00
68193;BME280;55012;47.562;18.414;2024-03-07T06:50:57;100435.16;;;3.54;100.00
68193;BME280;55012;47.562;18.414;2024-03-07T06:53:22;100428.75;;;3.50;100.00
68193;BME280;55012;47.562;18.414;2024-03-07T06:55:51;100435.97;;;3.54;100.00
68193;BME280;55012;47.562;18.414;2024-03-07T06:58:19;100446.13;;;3.67;100.00
68193;BME280;55012;47.562;18.414;2024-03-07T07:00:45;100457.38;;;3.70;100.00
68193;BME280;55012;47.562;18.414;2024-03-07T07:03:11;100469.94;;;3.69;100.00
68193;BME280;55012;47.562;18.414;2024-03-07T07:05:39;100478.25;;;3.67;100.00
68193;BME280;55012;47.562;18.414;2024-03-07T07:08:06;100486.00;;;3.69;100.00
68193;BME280;55012;47.562;18.414;2024-03-07T07:10:32;100492.97;;;3.70;100.00
68193;BME280;55012;47.562;18.414;2024-03-07T07:12:57;100498.84;;;3.77;100.00
68193;BME280;55012;47.562;18.414;2024-03-07T07:15:23;100502.88;;;3.75;100.00
68193;BME280;55012;47.562;18.414;2024-03-07T07:17:49;100510.38;;;3.73;100.00
68193;BME280;55012;47.562;18.414;2024-03-07T07:20:18;100516.53;;;3.73;100.00
68193;BME280;55012;47.562;18.414;2024-03-07T07:22:47;100526.69;;;3.66;100.00
68193;BME280;55012;47.562;18.414;2024-03-07T07:25:13;100540.63;;;3.73;100.00
68193;BME280;55012;47.562;18.414;2024-03-07T07:27:50;100544.34;;;3.82;100.00
68193;BME280;55012;47.562;18.414;2024-03-07T07:30:17;100565.22;;;3.95;100.00
68193;BME280;55012;47.562;18.414;2024-03-07T07:32:44;100568.97;;;4.05;100.00
68193;BME280;55012;47.562;18.414;2024-03-07T07:35:11;100571.13;;;4.08;100.00
68193;BME280;55012;47.562;18.414;2024-03-07T07:37:41;100575.41;;;4.09;100.00
68193;BME280;55012;47.562;18.414;2024-03-07T07:40:17;100578.63;;;4.16;100.00
68193;BME280;55012;47.562;18.414;2024-03-07T07:42:49;100582.91;;;4.22;100.00
68193;BME280;55012;47.562;18.414;2024-03-07T07:45:15;100578.06;;;4.04;100.00
68193;BME280;55012;47.562;18.414;2024-03-07T07:47:42;100596.00;;;4.03;100.00
68193;BME280;55012;47.562;18.414;2024-03-07T07:50:09;100592.81;;;4.01;100.00
68193;BME280;55012;47.562;18.414;2024-03-07T07:52:43;100594.41;;;3.97;100.00
68193;BME280;55012;47.562;18.414;2024-03-07T07:55:09;100580.47;;;3.80;100.00
68193;BME280;55012;47.562;18.414;2024-03-07T07:57:43;100573.00;;;3.77;100.00
68193;BME280;55012;47.562;18.414;2024-03-07T08:00:20;100578.63;;;3.90;100.00
68193;BME280;55012;47.562;18.414;2024-03-07T08:02:59;100587.72;;;4.10;100.00
68193;BME280;55012;47.562;18.414;2024-03-07T08:05:26;100600.28;;;4.30;100.00
68193;BME280;55012;47.562;18.414;2024-03-07T08:07:54;100598.41;;;4.35;100.00
68193;BME280;55012;47.562;18.414;2024-03-07T08:10:29;100597.06;;;4.43;100.00
68193;BME280;55012;47.562;18.414;2024-03-07T08:12:55;100601.59;;;4.53;100.00
68193;BME280;55012;47.562;18.414;2024-03-07T08:15:20;100605.06;;;4.53;100.00
68193;BME280;55012;47.562;18.414;2024-03-07T08:17:47;100600.28;;;4.45;100.00
68193;BME280;55012;47.562;18.414;2024-03-07T08:20:17;100604.56;;;4.46;100.00
68193;BME280;55012;47.562;18.414;2024-03-07T08:22:50;100598.13;;;4.42;100.00
68193;BME280;55012;47.562;18.414;2024-03-07T08:25:19;100605.91;;;4.48;100.00
68193;BME280;55012;47.562;18.414;2024-03-07T08:27:47;100599.75;;;4.43;100.00
68193;BME280;55012;47.562;18.414;2024-03-07T08:30:14;100595.19;;;4.48;100.00
68193;BME280;55012;47.562;18.414;2024-03-07T08:32:40;100599.19;;;4.56;100.00
68193;BME280;55012;47.562;18.414;2024-03-07T08:35:07;100594.59;;;4.62;100.00
68193;BME280;55012;47.562;18.414;2024-03-07T08:37:35;100588.72;;;4.65;100.00
68193;BME280;55012;47.562;18.414;2024-03-07T08:40:01;100595.16;;;4.64;100.00
68193;BME280;55012;47.562;18.414;2024-03-07T08:42:38;100569.16;;;4.54;100.00
68193;BME280;55012;47.562;18.414;2024-03-07T08:45:04;100565.44;;;4.50;100.00
68193;BME280;55012;47.562;18.414;2024-03-07T08:47:34;100558.97;;;4.66;100.00
68193;BME280;55012;47.562;18.414;2024-03-07T08:50:01;100554.06;;;4.78;100.00
68193;BME280;55012;47.562;18.414;2024-03-07T08:52:27;100551.44;;;4.68;100.00
68193;BME280;55012;47.562;18.414;2024-03-07T08:54:54;100537.25;;;4.63;100.00
68193;BME280;55012;47.562;18.414;2024-03-07T08:57:20;100519.00;;;4.70;100.00
68193;BME280;55012;47.562;18.414;2024-03-07T08:59:47;100518.44;;;4.78;100.00
68193;BME280;55012;47.562;18.414;2024-03-07T09:02:12;100506.63;;;4.84;100.00
68193;BME280;55012;47.562;18.414;2024-03-07T09:04:38;100503.91;;;4.89;100.00
68193;BME280;55012;47.562;18.414;2024-03-07T09:07:04;100496.09;;;4.98;100.00
68193;BME280;55012;47.562;18.414;2024-03-07T09:09:31;100489.03;;;5.12;100.00
68193;BME280;55012;47.562;18.414;2024-03-07T09:11:57;100485.28;;;5.13;100.00
68193;BME280;55012;47.562;18.414;2024-03-07T09:14:22;100480.44;;;5.15;100.00
68193;BME280;55012;47.562;18.414;2024-03-07T09:16:48;100473.97;;;5.21;100.00
68193;BME280;55012;47.562;18.414;2024-03-07T09:19:14;100473.81;;;5.42;100.00
68193;BME280;55012;47.562;18.414;2024-03-07T09:21:45;100479.28;;;5.60;100.00
68193;BME280;55012;47.562;18.414;2024-03-07T09:24:11;100463.56;;;5.49;100.00
68193;BME280;55012;47.562;18.414;2024-03-07T09:26:36;100455.72;;;5.57;100.00
68193;BME280;55012;47.562;18.414;2024-03-07T09:29:02;100454.25;;;5.70;100.00
68193;BME280;55012;47.562;18.414;2024-03-07T09:31:33;100442.66;;;5.75;100.00
68193;BME280;55012;47.562;18.414;2024-03-07T09:33:59;100447.63;;;5.86;100.00
68193;BME280;55012;47.562;18.414;2024-03-07T09:36:25;100435.59;;;5.84;100.00
68193;BME280;55012;47.562;18.414;2024-03-07T09:38:51;100419.97;;;5.91;100.00
68193;BME280;55012;47.562;18.414;2024-03-07T09:41:16;100415.06;;;5.98;100.00
68193;BME280;55012;47.562;18.414;2024-03-07T09:43:43;100409.63;;;6.03;100.00
68193;BME280;55012;47.562;18.414;2024-03-07T09:46:12;100398.34;;;6.06;100.00
68193;BME280;55012;47.562;18.414;2024-03-07T09:48:38;100380.38;;;6.02;100.00
68193;BME280;55012;47.562;18.414;2024-03-07T09:51:04;100377.97;;;6.00;100.00
68193;BME280;55012;47.562;18.414;2024-03-07T09:53:30;100358.72;;;5.93;100.00
68193;BME280;55012;47.562;18.414;2024-03-07T09:55:56;100356.03;;;5.93;100.00
68193;BME280;55012;47.562;18.414;2024-03-07T09:58:22;100340.22;;;5.86;100.00
68193;BME280;55012;47.562;18.414;2024-03-07T10:00:51;100337.31;;;5.83;100.00
68193;BME280;55012;47.562;18.414;2024-03-07T10:03:20;100324.53;;;5.75;100.00
68193;BME280;55012;47.562;18.414;2024-03-07T10:05:47;100328.81;;;5.76;100.00
68193;BME280;55012;47.562;18.414;2024-03-07T10:08:13;100323.22;;;5.72;100.00
68193;BME280;55012;47.562;18.414;2024-03-07T10:10:39;100312.53;;;5.67;100.00
68193;BME280;55012;47.562;18.414;2024-03-07T10:13:04;100320.13;;;5.60;100.00
68193;BME280;55012;47.562;18.414;2024-03-07T10:15:32;100312.56;;;5.62;100.00
68193;BME280;55012;47.562;18.414;2024-03-07T10:17:58;100308.75;;;5.68;100.00
68193;BME280;55012;47.562;18.414;2024-03-07T10:20:25;100315.22;;;5.67;100.00
68193;BME280;55012;47.562;18.414;2024-03-07T10:22:50;100329.09;;;5.74;100.00
68193;BME280;55012;47.562;18.414;2024-03-07T10:25:20;100321.97;;;5.88;100.00
68193;BME280;55012;47.562;18.414;2024-03-07T10:27:50;100327.00;;;5.95;100.00
68193;BME280;55012;47.562;18.414;2024-03-07T10:30:16;100330.75;;;6.18;100.00
68193;BME280;55012;47.562;18.414;2024-03-07T10:32:46;100332.72;;;6.31;100.00
68193;BME280;55012;47.562;18.414;2024-03-07T10:35:12;100322.50;;;6.33;100.00
68193;BME280;55012;47.562;18.414;2024-03-07T10:37:40;100320.97;;;6.46;100.00
68193;BME280;55012;47.562;18.414;2024-03-07T10:40:06;100299.09;;;6.34;100.00
68193;BME280;55012;47.562;18.414;2024-03-07T10:42:41;100288.28;;;6.39;100.00
68193;BME280;55012;47.562;18.414;2024-03-07T10:45:11;100276.75;;;6.38;100.00
68193;BME280;55012;47.562;18.414;2024-03-07T10:47:38;100275.41;;;6.36;100.00
68193;BME280;55012;47.562;18.414;2024-03-07T10:50:20;100258.66;;;6.25;100.00
68193;BME280;55012;47.562;18.414;2024-03-07T10:52:58;100244.28;;;6.16;100.00
68193;BME280;55012;47.562;18.414;2024-03-07T10:55:34;100238.91;;;6.16;100.00
68193;BME280;55012;47.562;18.414;2024-03-07T11:00:55;100223.50;;;6.22;100.00
68193;BME280;55012;47.562;18.414;2024-03-07T11:03:23;100225.00;;;6.28;100.00
68193;BME280;55012;47.562;18.414;2024-03-07T11:05:50;100220.81;;;6.22;100.00
68193;BME280;55012;47.562;18.414;2024-03-07T11:08:15;100216.31;;;6.17;100.00
68193;BME280;55012;47.562;18.414;2024-03-07T11:10:42;100208.06;;;6.13;100.00
68193;BME280;55012;47.562;18.414;2024-03-07T11:13:10;100217.91;;;6.18;100.00
68193;BME280;55012;47.562;18.414;2024-03-07T11:15:38;100207.47;;;6.16;100.00
68193;BME280;55012;47.562;18.414;2024-03-07T11:18:04;100210.66;;;6.18;100.00
68193;BME280;55012;47.562;18.414;2024-03-07T11:20:37;100198.75;;;6.25;100.00
68193;BME280;55012;47.562;18.414;2024-03-07T11:23:28;100206.47;;;6.45;100.00
68193;BME280;55012;47.562;18.414;2024-03-07T11:25:55;100198.34;;;6.50;100.00
68193;BME280;55012;47.562;18.414;2024-03-07T11:28:28;100178.72;;;6.50;100.00
68193;BME280;55012;47.562;18.414;2024-03-07T11:30:54;100147.75;;;6.38;100.00
68193;BME280;55012;47.562;18.414;2024-03-07T11:33:19;100121.00;;;6.28;100.00
68193;BME280;55012;47.562;18.414;2024-03-07T11:35:48;100104.88;;;6.28;100.00
68193;BME280;55012;47.562;18.414;2024-03-07T11:38:14;100109.31;;;6.38;100.00
68193;BME280;55012;47.562;18.414;2024-03-07T11:43:05;100112.50;;;6.40;100.00
68193;BME280;55012;47.562;18.414;2024-03-07T11:45:31;100091.47;;;6.28;100.00
68193;BME280;55012;47.562;18.414;2024-03-07T11:48:09;100094.94;;;6.29;100.00
68193;BME280;55012;47.562;18.414;2024-03-07T11:50:39;100100.47;;;6.37;100.00
68193;BME280;55012;47.562;18.414;2024-03-07T11:53:06;100100.16;;;6.39;100.00
68193;BME280;55012;47.562;18.414;2024-03-07T11:55:32;100092.59;;;6.41;100.00
68193;BME280;55012;47.562;18.414;2024-03-07T11:58:16;100085.44;;;6.50;100.00
68193;BME280;55012;47.562;18.414;2024-03-07T12:00:43;100076.50;;;6.55;100.00
68193;BME280;55012;47.562;18.414;2024-03-07T12:03:12;100069.22;;;6.55;100.00
68193;BME280;55012;47.562;18.414;2024-03-07T12:05:47;100031.88;;;6.54;100.00
68193;BME280;55012;47.562;18.414;2024-03-07T12:08:12;99997.44;;;6.56;100.00
68193;BME280;55012;47.562;18.414;2024-03-07T12:10:40;99971.75;;;6.50;100.00
68193;BME280;55012;47.562;18.414;2024-03-07T12:13:09;99953.63;;;6.41;100.00
68193;BME280;55012;47.562;18.414;2024-03-07T12:15:37;99955.81;;;6.53;100.00
68193;BME280;55012;47.562;18.414;2024-03-07T12:18:04;99969.84;;;6.64;100.00
68193;BME280;55012;47.562;18.414;2024-03-07T12:20:34;99960.69;;;6.65;100.00
68193;BME280;55012;47.562;18.414;2024-03-07T12:23:00;99930.25;;;6.56;100.00
68193;BME280;55012;47.562;18.414;2024-03-07T12:25:31;99928.25;;;6.47;100.00
68193;BME280;55012;47.562;18.414;2024-03-07T12:28:03;99919.41;;;6.33;100.00
68193;BME280;55012;47.562;18.414;2024-03-07T12:30:32;99935.13;;;6.26;100.00
68193;BME280;55012;47.562;18.414;2024-03-07T12:33:02;99938.81;;;6.16;100.00
68193;BME280;55012;47.562;18.414;2024-03-07T12:35:32;99958.22;;;6.13;100.00
68193;BME280;55012;47.562;18.414;2024-03-07T12:37:58;99976.22;;;6.13;100.00
68193;BME280;55012;47.562;18.414;2024-03-07T12:40:25;99981.75;;;6.03;100.00
68193;BME280;55012;47.562;18.414;2024-03-07T12:42:54;99979.50;;;5.96;100.00
68193;BME280;55012;47.562;18.414;2024-03-07T12:45:19;99995.88;;;5.95;100.00
68193;BME280;55012;47.562;18.414;2024-03-07T12:47:48;100009.03;;;5.96;100.00